Time;durP1;ratioP1;P1;durP2;ratioP2;P2;SDS_P1;SDS_P2;PMS_P1;PMS_P2;Temp;Humidity;BMP_temperature;BMP_pressure;BME280_temperature;BME280_humidity;BME280_pressure;Samples;Min_cycle;Max_cycle;Signal;HPM_P1;HPM_P2
2020/12/16 00:02:44;;;;;;;96.80;32.92;;;;;;;;;;8290890;28;20406;-74
2020/12/16 00:06:47;;;;;;;83.90;33.35;;;;;;;;;;8290727;28;20509;-73
2020/12/16 00:10:49;;;;;;;88.03;31.95;;;;;;;;;;8290447;28;20639;-73
2020/12/16 00:14:53;;;;;;;82.00;31.40;;;;;;;;;;8272956;28;20482;-73
2020/12/16 00:19:07;;;;;;;85.03;31.92;;;;;;;;;;8273096;28;20457;-73
2020/12/16 00:23:11;;;;;;;86.00;32.47;;;;;;;;;;8290106;28;20410;-73
2020/12/16 00:27:15;;;;;;;95.90;34.65;;;;;;;;;;8271439;28;20410;-73
2020/12/16 00:31:17;;;;;;;78.57;32.38;;;;;;;;;;8272698;28;20409;-73
2020/12/16 00:35:21;;;;;;;83.97;33.90;;;;;;;;;;8290086;28;20348;-74
2020/12/16 00:39:24;;;;;;;98.25;37.90;;;;;;;;;;8256080;28;20487;-74
2020/12/16 00:43:27;;;;;;;91.60;34.45;;;;;;;;;;8290289;28;20364;-73
2020/12/16 00:47:34;;;;;;;87.82;32.33;;;;;;;;;;8289894;28;20505;-73
2020/12/16 00:51:37;;;;;;;74.82;31.10;;;;;;;;;;8255874;28;20378;-73
2020/12/16 00:55:40;;;;;;;78.60;30.65;;;;;;;;;;8255752;28;20355;-73
2020/12/16 00:59:49;;;;;;;135.93;42.70;;;;;;;;;;8289864;28;20067;-73
2020/12/16 01:03:52;;;;;;;97.60;35.40;;;;;;;;;;8271939;28;20347;-73
2020/12/16 01:07:55;;;;;;;77.95;30.58;;;;;;;;;;8271759;28;20379;-73
2020/12/16 01:11:58;;;;;;;90.40;34.42;;;;;;;;;;8255052;28;20479;-73
2020/12/16 01:16:01;;;;;;;73.80;29.25;;;;;;;;;;8271694;28;20446;-73
2020/12/16 01:20:07;;;;;;;79.85;30.02;;;;;;;;;;8291398;28;20406;-74
2020/12/16 01:24:10;;;;;;;67.53;29.00;;;;;;;;;;8274964;28;20463;-72
2020/12/16 01:28:15;;;;;;;63.72;26.85;;;;;;;;;;8278663;28;20356;-72
2020/12/16 01:32:27;;;;;;;57.17;26.15;;;;;;;;;;8277501;28;20482;-73
2020/12/16 01:36:30;;;;;;;95.15;34.33;;;;;;;;;;8278020;28;20489;-73
2020/12/16 01:40:33;;;;;;;74.63;29.95;;;;;;;;;;8295865;28;20403;-73
2020/12/16 01:44:37;;;;;;;61.88;26.35;;;;;;;;;;8277928;28;20067;-73
2020/12/16 01:48:43;;;;;;;61.58;25.00;;;;;;;;;;8277765;28;20475;-73
2020/12/16 01:52:47;;;;;;;53.92;25.77;;;;;;;;;;8277659;28;20375;-73
2020/12/16 01:56:57;;;;;;;69.97;26.98;;;;;;;;;;8276644;28;20364;-73
2020/12/16 02:01:17;;;;;;;72.38;28.20;;;;;;;;;;8261520;28;20052;-73
2020/12/16 02:05:22;;;;;;;66.18;26.48;;;;;;;;;;8294933;28;20493;-73
2020/12/16 02:09:40;;;;;;;73.60;30.40;;;;;;;;;;8261477;28;20520;-73
2020/12/16 02:13:44;;;;;;;66.57;27.48;;;;;;;;;;8260381;28;20471;-73
2020/12/16 02:17:49;;;;;;;84.22;33.42;;;;;;;;;;8276794;28;20066;-73
2020/12/16 02:21:54;;;;;;;61.22;24.63;;;;;;;;;;8260529;28;20379;-73
2020/12/16 02:25:58;;;;;;;53.50;22.95;;;;;;;;;;8275899;28;20463;-73
2020/12/16 02:30:01;;;;;;;61.30;25.70;;;;;;;;;;8259948;28;20443;-72
2020/12/16 02:34:22;;;;;;;54.97;24.15;;;;;;;;;;8292548;28;20370;-73
2020/12/16 02:38:25;;;;;;;65.93;26.42;;;;;;;;;;8294466;28;20485;-73
2020/12/16 02:42:29;;;;;;;53.83;24.55;;;;;;;;;;8293644;28;20044;-74
2020/12/16 02:46:33;;;;;;;73.15;29.38;;;;;;;;;;8293682;28;20386;-73
2020/12/16 02:50:36;;;;;;;47.63;21.98;;;;;;;;;;8275935;28;20364;-73
2020/12/16 02:54:40;;;;;;;40.67;19.38;;;;;;;;;;8275638;28;20451;-73
2020/12/16 02:59:03;;;;;;;38.63;18.02;;;;;;;;;;8278207;28;20494;-74
2020/12/16 03:03:13;;;;;;;44.67;20.23;;;;;;;;;;8274798;28;20378;-72
2020/12/16 03:07:39;;;;;;;44.58;20.15;;;;;;;;;;8246456;28;20386;-73
2020/12/16 03:11:43;;;;;;;46.15;19.60;;;;;;;;;;8275300;28;20382;-73
2020/12/16 03:15:47;;;;;;;39.22;15.85;;;;;;;;;;8274371;28;20387;-73
2020/12/16 03:19:51;;;;;;;33.05;15.10;;;;;;;;;;8275024;28;20474;-73
2020/12/16 03:23:56;;;;;;;45.53;19.83;;;;;;;;;;8257907;28;20371;-73
2020/12/16 03:28:29;;;;;;;33.22;15.38;;;;;;;;;;8274555;28;20572;-73
2020/12/16 03:32:49;;;;;;;27.08;14.23;;;;;;;;;;8274242;28;20407;-73
2020/12/16 03:37:18;;;;;;;30.02;13.45;;;;;;;;;;8276149;28;20507;-73
2020/12/16 03:41:23;;;;;;;28.65;14.40;;;;;;;;;;8274169;28;20462;-74
2020/12/16 03:45:32;;;;;;;34.95;15.80;;;;;;;;;;8257164;28;20399;-74
2020/12/16 03:49:37;;;;;;;25.35;12.65;;;;;;;;;;8273065;28;20459;-74
2020/12/16 03:53:42;;;;;;;24.70;10.60;;;;;;;;;;8273442;28;20071;-74
2020/12/16 03:58:05;;;;;;;26.00;14.07;;;;;;;;;;8290658;28;20413;-74
2020/12/16 04:02:27;;;;;;;27.27;12.95;;;;;;;;;;8291357;28;20455;-73
2020/12/16 04:06:45;;;;;;;31.77;12.75;;;;;;;;;;8273041;28;20471;-73
2020/12/16 04:10:48;;;;;;;22.58;12.18;;;;;;;;;;8273023;28;20356;-74
2020/12/16 04:14:53;;;;;;;29.58;13.02;;;;;;;;;;8272475;28;20493;-74
2020/12/16 04:18:56;;;;;;;69.50;23.40;;;;;;;;;;8272473;28;20474;-73
2020/12/16 04:23:00;;;;;;;29.30;13.70;;;;;;;;;;8290451;28;20475;-74
2020/12/16 04:27:05;;;;;;;23.65;13.07;;;;;;;;;;8272859;28;20075;-73
2020/12/16 04:31:11;;;;;;;32.08;15.10;;;;;;;;;;8271954;28;20400;-73
2020/12/16 04:35:16;;;;;;;24.15;12.07;;;;;;;;;;8256264;28;20044;-73
2020/12/16 04:39:20;;;;;;;27.88;12.35;;;;;;;;;;8256069;28;20478;-73
2020/12/16 04:43:24;;;;;;;24.40;11.35;;;;;;;;;;8271491;28;20390;-73
2020/12/16 04:47:27;;;;;;;24.00;11.45;;;;;;;;;;8272057;28;20049;-73
2020/12/16 04:51:43;;;;;;;784.00;174.75;;;;;;;;;;8271584;28;20475;-73
2020/12/16 04:55:52;;;;;;;511.48;202.57;;;;;;;;;;8272207;28;20371;-73
2020/12/16 05:00:09;;;;;;;79.18;37.58;;;;;;;;;;8257405;28;20040;-73
2020/12/16 05:04:40;;;;;;;202.13;81.55;;;;;;;;;;8213324;28;20410;-73
2020/12/16 05:09:03;;;;;;;48.35;20.67;;;;;;;;;;8238311;28;20356;-73
2020/12/16 05:13:20;;;;;;;48.17;18.70;;;;;;;;;;8255596;28;20445;-73
2020/12/16 05:17:23;;;;;;;25.77;9.57;;;;;;;;;;8289306;28;20505;-73
2020/12/16 05:21:41;;;;;;;19.83;10.13;;;;;;;;;;8257437;28;20379;-73
2020/12/16 05:26:16;;;;;;;25.08;13.60;;;;;;;;;;8289187;28;20377;-73
2020/12/16 05:30:20;;;;;;;28.30;14.00;;;;;;;;;;8240187;28;20501;-74
2020/12/16 05:34:29;;;;;;;231.90;44.90;;;;;;;;;;8270965;28;20501;-74
2020/12/16 05:38:32;;;;;;;240.32;46.58;;;;;;;;;;8289358;28;20045;-74
2020/12/16 05:42:35;;;;;;;165.57;39.17;;;;;;;;;;8271509;28;20418;-74
2020/12/16 05:46:39;;;;;;;42.50;15.55;;;;;;;;;;8271204;28;20374;-74
2020/12/16 05:50:57;;;;;;;23.60;10.70;;;;;;;;;;8289233;28;20485;-74
2020/12/16 05:55:00;;;;;;;20.48;9.35;;;;;;;;;;8288847;28;20382;-74
2020/12/16 05:59:08;;;;;;;17.20;9.50;;;;;;;;;;8289145;28;20462;-74
2020/12/16 06:03:21;;;;;;;19.70;8.55;;;;;;;;;;8288996;28;20066;-73
2020/12/16 06:07:27;;;;;;;15.52;8.02;;;;;;;;;;8270595;28;20490;-73
2020/12/16 06:11:37;;;;;;;15.25;8.55;;;;;;;;;;8291955;28;20493;-74
2020/12/16 06:15:55;;;;;;;17.15;7.88;;;;;;;;;;8277540;28;20052;-73
2020/12/16 06:20:00;;;;;;;17.55;7.68;;;;;;;;;;8277357;28;20454;-73
2020/12/16 06:24:08;;;;;;;21.75;8.85;;;;;;;;;;8277020;28;20496;-73
2020/12/16 06:28:13;;;;;;;39.30;13.57;;;;;;;;;;8294574;28;20379;-73
2020/12/16 06:32:32;;;;;;;83.35;22.20;;;;;;;;;;8276288;28;20493;-74
2020/12/16 06:36:41;;;;;;;94.65;25.40;;;;;;;;;;8292342;28;20053;-73
2020/12/16 06:40:55;;;;;;;186.32;47.28;;;;;;;;;;8275637;28;20489;-74
2020/12/16 06:45:15;;;;;;;316.73;68.80;;;;;;;;;;8276046;28;20417;-74
2020/12/16 06:49:24;;;;;;;418.98;90.97;;;;;;;;;;8275989;28;20374;-73
2020/12/16 06:53:28;;;;;;;178.38;44.63;;;;;;;;;;8292967;28;20416;-74
2020/12/16 06:57:32;;;;;;;69.68;22.80;;;;;;;;;;8275568;28;20493;-73
2020/12/16 07:01:35;;;;;;;244.50;53.50;;;;;;;;;;8292833;28;20071;-74
2020/12/16 07:05:40;;;;;;;270.42;54.63;;;;;;;;;;8293075;28;20387;-74
2020/12/16 07:09:43;;;;;;;78.07;24.33;;;;;;;;;;8292428;28;20375;-74
2020/12/16 07:14:16;;;;;;;232.50;52.05;;;;;;;;;;8250477;28;20391;-73
2020/12/16 07:18:20;;;;;;;236.55;54.58;;;;;;;;;;8290788;28;20044;-74
2020/12/16 07:22:24;;;;;;;343.17;69.82;;;;;;;;;;8291740;28;20070;-73
2020/12/16 07:26:46;;;;;;;449.48;99.13;;;;;;;;;;8274604;28;20479;-73
2020/12/16 07:30:51;;;;;;;302.60;66.55;;;;;;;;;;8275304;28;20049;-74
2020/12/16 07:34:59;;;;;;;181.80;45.97;;;;;;;;;;8291928;28;20470;-74
2020/12/16 07:39:02;;;;;;;186.05;47.42;;;;;;;;;;8291958;28;20475;-74
2020/12/16 07:43:09;;;;;;;239.95;53.85;;;;;;;;;;8256840;28;20352;-74
2020/12/16 07:47:12;;;;;;;103.82;30.05;;;;;;;;;;8274170;28;20053;-73
2020/12/16 07:51:19;;;;;;;34.92;14.90;;;;;;;;;;8291683;28;20459;-72
2020/12/16 07:55:25;;;;;;;31.23;11.93;;;;;;;;;;8273544;28;20409;-72
2020/12/16 07:59:33;;;;;;;16.33;7.75;;;;;;;;;;8241205;28;20067;-75
2020/12/16 08:03:37;;;;;;;17.77;7.78;;;;;;;;;;8255857;28;20055;-74
2020/12/16 08:07:40;;;;;;;17.73;8.38;;;;;;;;;;8272910;28;20490;-74
2020/12/16 08:11:47;;;;;;;19.73;9.10;;;;;;;;;;8273039;28;20509;-74
2020/12/16 08:15:52;;;;;;;21.77;10.88;;;;;;;;;;8272718;28;20381;-74
2020/12/16 08:20:26;;;;;;;23.90;11.15;;;;;;;;;;8289577;28;20455;-74
2020/12/16 08:24:30;;;;;;;37.70;12.82;;;;;;;;;;8273196;28;20052;-72
2020/12/16 08:28:49;;;;;;;37.78;12.55;;;;;;;;;;8224011;28;20485;-74
2020/12/16 08:33:09;;;;;;;28.23;11.48;;;;;;;;;;8207449;28;20074;-73
2020/12/16 08:37:14;;;;;;;86.25;23.52;;;;;;;;;;8220612;28;20406;-73
2020/12/16 08:41:29;;;;;;;56.47;18.77;;;;;;;;;;8289850;28;20467;-73
2020/12/16 08:45:33;;;;;;;54.92;19.80;;;;;;;;;;8289776;28;20377;-73
2020/12/16 08:49:36;;;;;;;161.13;52.20;;;;;;;;;;8290111;28;20360;-73
2020/12/16 08:54:03;;;;;;;52.33;19.13;;;;;;;;;;8289405;28;20053;-73
2020/12/16 08:58:07;;;;;;;66.38;22.70;;;;;;;;;;8271871;28;20463;-73
2020/12/16 09:02:10;;;;;;;110.95;34.47;;;;;;;;;;8289452;28;20501;-73
2020/12/16 09:06:15;;;;;;;100.68;29.88;;;;;;;;;;8271909;28;20477;-73
2020/12/16 09:10:18;;;;;;;43.67;16.58;;;;;;;;;;8272039;28;20375;-74
2020/12/16 09:14:23;;;;;;;84.25;29.00;;;;;;;;;;8289296;28;20056;-73
2020/12/16 09:18:32;;;;;;;84.32;26.00;;;;;;;;;;8271141;28;20126;-72
2020/12/16 09:22:35;;;;;;;62.38;21.00;;;;;;;;;;8271464;28;20501;-72
2020/12/16 09:26:44;;;;;;;118.00;33.22;;;;;;;;;;8289588;28;20475;-73
2020/12/16 09:30:47;;;;;;;64.38;21.08;;;;;;;;;;8287629;28;20076;-73
2020/12/16 09:34:55;;;;;;;109.72;31.63;;;;;;;;;;8289121;28;20485;-74
2020/12/16 09:39:04;;;;;;;63.55;19.58;;;;;;;;;;8288903;28;20370;-74
2020/12/16 09:43:10;;;;;;;34.80;14.45;;;;;;;;;;8289570;28;20459;-73
2020/12/16 09:47:21;;;;;;;38.83;17.10;;;;;;;;;;8278550;28;20356;-74
2020/12/16 09:51:24;;;;;;;71.63;21.63;;;;;;;;;;8261788;28;20382;-74
2020/12/16 09:55:31;;;;;;;51.15;19.30;;;;;;;;;;8292848;28;20075;-73
2020/12/16 09:59:46;;;;;;;;;;;;;;;;;;8292504;28;20370;-74
2020/12/16 10:03:49;;;;;;;35.70;12.07;;;;;;;;;;8294638;28;20286;-74
2020/12/16 10:07:53;;;;;;;47.17;15.82;;;;;;;;;;8294977;28;20466;-74
2020/12/16 10:11:55;;;;;;;35.80;13.52;;;;;;;;;;8209267;28;20372;-74
2020/12/16 10:15:59;;;;;;;56.53;19.05;;;;;;;;;;8225133;28;20061;-74
2020/12/16 10:20:03;;;;;;;67.60;20.85;;;;;;;;;;8225482;28;20490;-74
2020/12/16 10:24:07;;;;;;;57.10;18.58;;;;;;;;;;8225222;28;20495;-74
2020/12/16 10:28:10;;;;;;;136.77;49.95;;;;;;;;;;8209187;28;20480;-74
2020/12/16 10:32:16;;;;;;;62.55;22.05;;;;;;;;;;8208791;28;20480;-74
2020/12/16 10:36:19;;;;;;;75.30;24.95;;;;;;;;;;8208667;28;20432;-75
2020/12/16 10:40:22;;;;;;;124.38;34.58;;;;;;;;;;8228938;28;20383;-73
2020/12/16 10:44:27;;;;;;;73.28;25.33;;;;;;;;;;8294171;28;20475;-73
2020/12/16 10:48:30;;;;;;;59.88;21.17;;;;;;;;;;8292018;28;20478;-73
2020/12/16 10:52:33;;;;;;;88.03;27.98;;;;;;;;;;8275441;28;20455;-73
2020/12/16 10:56:36;;;;;;;39.97;15.48;;;;;;;;;;8293119;28;20383;-73
2020/12/16 11:00:39;;;;;;;131.93;36.20;;;;;;;;;;8291615;28;20417;-73
2020/12/16 11:04:44;;;;;;;101.57;30.27;;;;;;;;;;8275067;28;20490;-73
2020/12/16 11:08:48;;;;;;;85.78;26.33;;;;;;;;;;8291689;28;20513;-73
2020/12/16 11:12:51;;;;;;;74.95;23.88;;;;;;;;;;8291238;28;20368;-74
2020/12/16 11:16:54;;;;;;;89.55;25.85;;;;;;;;;;8293057;28;20378;-74
2020/12/16 11:20:57;;;;;;;57.25;20.25;;;;;;;;;;8292875;28;20052;-73
2020/12/16 11:25:00;;;;;;;59.33;18.35;;;;;;;;;;8207938;28;20460;-72
2020/12/16 11:29:05;;;;;;;104.47;33.50;;;;;;;;;;8258233;28;20485;-73
2020/12/16 11:33:08;;;;;;;95.30;33.88;;;;;;;;;;8241957;28;20071;-73
2020/12/16 11:37:13;;;;;;;71.95;27.80;;;;;;;;;;8190101;28;20477;-72
2020/12/16 11:41:16;;;;;;;123.20;41.38;;;;;;;;;;8242078;28;20467;-73
2020/12/16 11:45:20;;;;;;;30.77;13.55;;;;;;;;;;8210952;28;20477;-73
2020/12/16 11:49:23;;;;;;;53.45;18.23;;;;;;;;;;8258905;28;20467;-73
2020/12/16 11:53:26;;;;;;;51.45;19.08;;;;;;;;;;8207890;28;20049;-73
2020/12/16 11:57:29;;;;;;;63.47;21.88;;;;;;;;;;8261192;28;20352;-72
2020/12/16 12:01:33;;;;;;;29.88;13.27;;;;;;;;;;8258846;28;20361;-74
2020/12/16 12:05:40;;;;;;;51.83;19.95;;;;;;;;;;8240905;28;20471;-73
2020/12/16 12:09:43;;;;;;;73.50;31.35;;;;;;;;;;8237858;28;20460;-73
2020/12/16 12:13:46;;;;;;;102.38;40.75;;;;;;;;;;8222309;28;20490;-72
2020/12/16 12:17:49;;;;;;;58.92;23.80;;;;;;;;;;8256832;28;20371;-73
2020/12/16 12:21:52;;;;;;;60.67;22.67;;;;;;;;;;8240776;28;20459;-73
2020/12/16 12:25:55;;;;;;;82.72;32.28;;;;;;;;;;8257479;28;20528;-73
2020/12/16 12:29:59;;;;;;;76.38;32.28;;;;;;;;;;8239616;28;20370;-73
2020/12/16 12:34:03;;;;;;;41.80;20.77;;;;;;;;;;8239964;28;20387;-73
2020/12/16 12:38:06;;;;;;;34.45;14.63;;;;;;;;;;8258012;28;20498;-73
2020/12/16 12:42:10;;;;;;;27.70;11.77;;;;;;;;;;8240286;28;20407;-73
2020/12/16 12:46:13;;;;;;;59.20;23.95;;;;;;;;;;8257522;28;20555;-73
2020/12/16 12:50:17;;;;;;;39.45;16.52;;;;;;;;;;8257165;28;20391;-73
2020/12/16 12:54:20;;;;;;;23.92;9.90;;;;;;;;;;8256928;28;20418;-72
2020/12/16 12:58:23;;;;;;;19.23;9.10;;;;;;;;;;8257236;28;20386;-72
2020/12/16 13:02:31;;;;;;;51.53;19.20;;;;;;;;;;8240781;28;20370;-73
2020/12/16 13:06:35;;;;;;;105.50;41.53;;;;;;;;;;8256200;28;20072;-73
2020/12/16 13:10:38;;;;;;;93.78;38.58;;;;;;;;;;8239739;28;20476;-73
2020/12/16 13:14:41;;;;;;;53.55;24.55;;;;;;;;;;8256907;28;20083;-72
2020/12/16 13:18:44;;;;;;;68.43;29.42;;;;;;;;;;8256264;28;20509;-73
2020/12/16 13:22:47;;;;;;;49.38;20.92;;;;;;;;;;8256833;28;20386;-72
2020/12/16 13:26:52;;;;;;;41.28;15.48;;;;;;;;;;8223198;28;20482;-73
2020/12/16 13:30:55;;;;;;;82.43;35.25;;;;;;;;;;8239090;28;20379;-73
2020/12/16 13:35:00;;;;;;;98.13;39.97;;;;;;;;;;8256519;28;20483;-73
2020/12/16 13:39:04;;;;;;;80.50;34.22;;;;;;;;;;8238557;28;20371;-73
2020/12/16 13:43:07;;;;;;;53.15;22.92;;;;;;;;;;8221252;28;20463;-73
2020/12/16 13:47:10;;;;;;;34.75;16.70;;;;;;;;;;8256561;28;20505;-73
2020/12/16 13:51:13;;;;;;;37.63;18.60;;;;;;;;;;8225198;28;20489;-73
2020/12/16 13:55:18;;;;;;;59.20;26.73;;;;;;;;;;8259333;28;20455;-72
2020/12/16 13:59:21;;;;;;;56.60;27.35;;;;;;;;;;8289020;28;20573;-73
2020/12/16 14:03:24;;;;;;;169.45;88.82;;;;;;;;;;8288507;28;20479;-73
2020/12/16 14:07:27;;;;;;;79.28;40.67;;;;;;;;;;8288931;28;20072;-73
2020/12/16 14:11:30;;;;;;;51.65;21.58;;;;;;;;;;8288497;28;20483;-73
2020/12/16 14:15:33;;;;;;;39.35;18.27;;;;;;;;;;8287429;28;20075;-73
2020/12/16 14:19:36;;;;;;;31.45;15.45;;;;;;;;;;8288394;28;20470;-73
2020/12/16 14:23:41;;;;;;;406.65;115.78;;;;;;;;;;8288812;28;20497;-73
2020/12/16 14:27:45;;;;;;;35.10;15.38;;;;;;;;;;8287652;28;20382;-73
2020/12/16 14:31:50;;;;;;;31.17;13.75;;;;;;;;;;8272810;28;20048;-73
2020/12/16 14:35:53;;;;;;;33.58;12.73;;;;;;;;;;8292465;28;20071;-73
2020/12/16 14:39:58;;;;;;;33.15;12.95;;;;;;;;;;8259194;28;20459;-73
2020/12/16 14:44:02;;;;;;;106.25;32.65;;;;;;;;;;8259515;28;20375;-73
2020/12/16 14:48:05;;;;;;;223.13;63.80;;;;;;;;;;8292031;28;20040;-73
2020/12/16 14:52:08;;;;;;;290.55;97.75;;;;;;;;;;8258855;28;20521;-73
2020/12/16 14:56:12;;;;;;;149.02;62.65;;;;;;;;;;8292881;28;20079;-73
2020/12/16 15:00:18;;;;;;;145.43;58.80;;;;;;;;;;8258528;28;20480;-73
2020/12/16 15:04:22;;;;;;;36.78;15.60;;;;;;;;;;8257829;28;20391;-72
2020/12/16 15:08:25;;;;;;;34.63;14.05;;;;;;;;;;8290207;28;20378;-73
2020/12/16 15:12:29;;;;;;;30.08;13.35;;;;;;;;;;8292099;28;20360;-73
2020/12/16 15:16:34;;;;;;;30.48;11.70;;;;;;;;;;8273930;28;20067;-73
2020/12/16 15:20:38;;;;;;;45.80;16.33;;;;;;;;;;8255965;28;20389;-73
2020/12/16 15:24:41;;;;;;;35.22;13.02;;;;;;;;;;8273862;28;20036;-73
2020/12/16 15:28:44;;;;;;;31.77;11.60;;;;;;;;;;8257342;28;20090;-73
2020/12/16 15:32:58;;;;;;;31.15;10.98;;;;;;;;;;8231293;28;20363;-71
2020/12/16 15:37:06;;;;;;;;;;;;;;;;;;8240675;28;20048;-71
2020/12/16 15:41:13;;;;;;;30.40;12.48;;;;;;;;;;8269987;28;20350;-71
2020/12/16 15:45:18;;;;;;;75.43;36.42;;;;;;;;;;8256006;28;20071;-70
2020/12/16 15:49:22;;;;;;;94.32;42.67;;;;;;;;;;8270389;28;20624;-71
2020/12/16 15:53:27;;;;;;;96.63;40.35;;;;;;;;;;8273410;28;20486;-70
2020/12/16 15:57:32;;;;;;;52.75;25.00;;;;;;;;;;8240229;28;20479;-70
2020/12/16 16:01:36;;;;;;;36.55;17.40;;;;;;;;;;8252630;28;20049;-71
2020/12/16 16:05:39;;;;;;;37.47;17.60;;;;;;;;;;8254307;28;20048;-70
2020/12/16 16:09:43;;;;;;;33.55;15.70;;;;;;;;;;8287697;28;20052;-70
2020/12/16 16:13:46;;;;;;;40.38;16.08;;;;;;;;;;8223276;28;20360;-71
2020/12/16 16:17:49;;;;;;;53.15;26.08;;;;;;;;;;8222928;28;20463;-71
2020/12/16 16:21:53;;;;;;;57.42;24.85;;;;;;;;;;8217310;28;20464;-70
2020/12/16 16:25:56;;;;;;;50.97;22.45;;;;;;;;;;8219494;28;20474;-71
2020/12/16 16:29:59;;;;;;;53.10;23.10;;;;;;;;;;8237155;28;20493;-71
2020/12/16 16:34:03;;;;;;;54.88;24.10;;;;;;;;;;8287473;28;20475;-70
2020/12/16 16:38:07;;;;;;;58.92;25.02;;;;;;;;;;8253818;28;20075;-73
2020/12/16 16:42:11;;;;;;;57.33;25.98;;;;;;;;;;8284095;28;20356;-72
2020/12/16 16:46:14;;;;;;;62.92;26.65;;;;;;;;;;8219575;28;20413;-71
2020/12/16 16:50:18;;;;;;;63.63;27.33;;;;;;;;;;8269217;28;20049;-71
2020/12/16 16:54:22;;;;;;;68.30;29.02;;;;;;;;;;8253988;28;20048;-72
2020/12/16 16:58:25;;;;;;;65.05;28.55;;;;;;;;;;8271431;28;20352;-71
2020/12/16 17:02:29;;;;;;;80.70;30.17;;;;;;;;;;8250199;28;20394;-71
2020/12/16 17:06:33;;;;;;;73.38;30.50;;;;;;;;;;8236946;28;20076;-71
2020/12/16 17:10:38;;;;;;;69.85;30.25;;;;;;;;;;8233852;28;20067;-72
2020/12/16 17:14:45;;;;;;;80.75;34.38;;;;;;;;;;8271175;28;20385;-72
2020/12/16 17:18:51;;;;;;;86.43;34.05;;;;;;;;;;8237110;28;20497;-73
2020/12/16 17:23:05;;;;;;;76.78;30.55;;;;;;;;;;8237268;28;20573;-72
2020/12/16 17:27:14;;;;;;;79.68;31.00;;;;;;;;;;8236733;28;20417;-71
2020/12/16 17:31:18;;;;;;;87.80;34.78;;;;;;;;;;8267785;28;20459;-71
2020/12/16 17:35:25;;;;;;;85.75;34.67;;;;;;;;;;8253461;28;20470;-72
2020/12/16 17:39:29;;;;;;;82.65;33.70;;;;;;;;;;8229216;28;20044;-71
2020/12/16 17:43:32;;;;;;;83.78;33.88;;;;;;;;;;8237091;28;20063;-73
2020/12/16 17:47:36;;;;;;;93.97;38.30;;;;;;;;;;8170332;28;20045;-72
2020/12/16 17:51:42;;;;;;;99.43;39.00;;;;;;;;;;8186414;28;20372;-72
2020/12/16 17:55:50;;;;;;;113.97;43.22;;;;;;;;;;8204152;28;20411;-72
2020/12/16 17:59:54;;;;;;;109.33;42.93;;;;;;;;;;8171189;28;20393;-73
2020/12/16 18:04:14;;;;;;;166.18;64.30;;;;;;;;;;8210640;28;20430;-72
2020/12/16 18:08:19;;;;;;;387.88;127.07;;;;;;;;;;8225085;28;20486;-74
2020/12/16 18:12:23;;;;;;;486.80;190.05;;;;;;;;;;8223900;28;20491;-72
2020/12/16 18:16:27;;;;;;;348.77;128.45;;;;;;;;;;8203008;28;20414;-72
2020/12/16 18:20:32;;;;;;;245.45;93.53;;;;;;;;;;8224985;28;20041;-73
2020/12/16 18:24:36;;;;;;;165.30;67.90;;;;;;;;;;8207404;28;20372;-72
2020/12/16 18:28:41;;;;;;;280.17;99.55;;;;;;;;;;8241879;28;20406;-75
2020/12/16 18:32:47;;;;;;;232.30;88.18;;;;;;;;;;8236567;28;20421;-71
2020/12/16 18:36:53;;;;;;;212.98;86.68;;;;;;;;;;8207332;28;20463;-72
2020/12/16 18:41:00;;;;;;;220.57;87.85;;;;;;;;;;8206203;28;20076;-72
2020/12/16 18:45:04;;;;;;;213.88;80.30;;;;;;;;;;8240399;28;20387;-73
2020/12/16 18:49:16;;;;;;;184.57;73.75;;;;;;;;;;8207838;28;20538;-74
2020/12/16 18:53:20;;;;;;;193.02;73.65;;;;;;;;;;8220885;28;20475;-72
2020/12/16 18:57:23;;;;;;;184.55;69.97;;;;;;;;;;8221930;28;20402;-75
2020/12/16 19:01:27;;;;;;;193.23;72.03;;;;;;;;;;8221008;28;20498;-74
2020/12/16 19:05:30;;;;;;;225.75;86.78;;;;;;;;;;8256150;28;20466;-73
2020/12/16 19:09:37;;;;;;;140.18;63.40;;;;;;;;;;8204388;28;20476;-71
2020/12/16 19:13:41;;;;;;;133.95;59.42;;;;;;;;;;8206720;28;20483;-72
2020/12/16 19:17:45;;;;;;;163.23;69.60;;;;;;;;;;8237275;28;20389;-71
2020/12/16 19:21:51;;;;;;;149.75;66.57;;;;;;;;;;8191276;28;20360;-71
2020/12/16 19:25:54;;;;;;;168.23;69.63;;;;;;;;;;8193962;28;20482;-71
2020/12/16 19:30:00;;;;;;;144.65;59.15;;;;;;;;;;8206915;28;20068;-72
2020/12/16 19:34:06;;;;;;;155.85;60.83;;;;;;;;;;8236940;28;20418;-72
2020/12/16 19:38:09;;;;;;;160.27;65.38;;;;;;;;;;8223248;28;20072;-73
2020/12/16 19:42:13;;;;;;;144.05;62.22;;;;;;;;;;8272023;28;20482;-72
2020/12/16 19:46:18;;;;;;;145.50;59.40;;;;;;;;;;8274694;28;20482;-73
2020/12/16 19:50:21;;;;;;;161.57;61.90;;;;;;;;;;8272671;28;20048;-73
2020/12/16 19:54:24;;;;;;;154.85;62.35;;;;;;;;;;8240419;28;20424;-74
2020/12/16 19:58:27;;;;;;;162.88;64.13;;;;;;;;;;8272902;28;20386;-73
2020/12/16 20:02:30;;;;;;;135.35;58.55;;;;;;;;;;8239604;28;20481;-73
2020/12/16 20:06:43;;;;;;;147.85;61.35;;;;;;;;;;8254437;28;20053;-73
2020/12/16 20:10:47;;;;;;;137.07;61.55;;;;;;;;;;8255532;28;20391;-73
2020/12/16 20:14:52;;;;;;;150.50;66.30;;;;;;;;;;8207339;28;20468;-73
2020/12/16 20:18:55;;;;;;;194.73;77.00;;;;;;;;;;8238906;28;20375;-74
2020/12/16 20:22:59;;;;;;;225.75;81.97;;;;;;;;;;8205613;28;20420;-73
2020/12/16 20:27:03;;;;;;;223.45;85.38;;;;;;;;;;8257634;28;20485;-73
2020/12/16 20:31:06;;;;;;;250.10;90.15;;;;;;;;;;8256546;28;20459;-74
2020/12/16 20:35:10;;;;;;;279.08;99.82;;;;;;;;;;8255805;28;20345;-73
2020/12/16 20:39:15;;;;;;;273.63;96.80;;;;;;;;;;8239786;28;20494;-72
2020/12/16 20:43:18;;;;;;;238.20;87.15;;;;;;;;;;8254299;28;20068;-73
2020/12/16 20:47:22;;;;;;;219.38;83.47;;;;;;;;;;8256952;28;20041;-72
2020/12/16 20:51:25;;;;;;;252.50;88.97;;;;;;;;;;8255836;28;20491;-72
2020/12/16 20:55:28;;;;;;;237.88;84.40;;;;;;;;;;8236771;28;20487;-74
2020/12/16 20:59:32;;;;;;;261.52;93.70;;;;;;;;;;8252897;28;20479;-73
2020/12/16 21:03:35;;;;;;;278.05;104.97;;;;;;;;;;8238534;28;20364;-73
2020/12/16 21:07:39;;;;;;;266.40;102.00;;;;;;;;;;8253693;28;20475;-74
2020/12/16 21:11:42;;;;;;;263.50;102.60;;;;;;;;;;8255799;28;20075;-73
2020/12/16 21:15:46;;;;;;;218.18;76.95;;;;;;;;;;8204711;28;20468;-73
2020/12/16 21:19:49;;;;;;;152.65;61.05;;;;;;;;;;8254293;28;20076;-73
2020/12/16 21:23:52;;;;;;;131.48;53.80;;;;;;;;;;8221800;28;20371;-73
2020/12/16 21:27:56;;;;;;;121.75;50.17;;;;;;;;;;8251254;28;20479;-73
2020/12/16 21:32:01;;;;;;;116.60;44.55;;;;;;;;;;8256384;28;20407;-73
2020/12/16 21:36:06;;;;;;;102.47;41.45;;;;;;;;;;8238570;28;20478;-73
2020/12/16 21:40:09;;;;;;;93.95;39.33;;;;;;;;;;8256581;28;20410;-73
2020/12/16 21:44:12;;;;;;;74.18;32.53;;;;;;;;;;8239155;28;20480;-74
2020/12/16 21:48:16;;;;;;;94.97;39.10;;;;;;;;;;8240492;28;20076;-73
2020/12/16 21:52:19;;;;;;;103.30;42.28;;;;;;;;;;8262837;28;20394;-73
2020/12/16 21:56:22;;;;;;;85.53;37.30;;;;;;;;;;8261246;28;20067;-73
2020/12/16 22:00:25;;;;;;;74.00;32.35;;;;;;;;;;8262410;28;20049;-73
2020/12/16 22:04:30;;;;;;;91.80;37.38;;;;;;;;;;8260452;28;20079;-73
2020/12/16 22:08:34;;;;;;;96.90;40.25;;;;;;;;;;8260516;28;20698;-72
2020/12/16 22:12:37;;;;;;;88.38;37.30;;;;;;;;;;8262326;28;20485;-73
2020/12/16 22:16:42;;;;;;;90.05;39.90;;;;;;;;;;8261258;28;20411;-73
2020/12/16 22:20:45;;;;;;;189.77;50.85;;;;;;;;;;8262197;28;20357;-72
2020/12/16 22:24:48;;;;;;;117.65;41.75;;;;;;;;;;8260992;28;20056;-72
2020/12/16 22:28:52;;;;;;;93.97;35.72;;;;;;;;;;8260933;28;20460;-72
2020/12/16 22:32:55;;;;;;;100.72;41.60;;;;;;;;;;8261255;28;20533;-72
2020/12/16 22:36:58;;;;;;;152.38;49.15;;;;;;;;;;8257477;28;20048;-72
2020/12/16 22:41:02;;;;;;;128.82;47.75;;;;;;;;;;8260731;28;20471;-72
2020/12/16 22:45:06;;;;;;;820.40;225.02;;;;;;;;;;8242762;28;20497;-72
2020/12/16 22:49:09;;;;;;;189.98;60.60;;;;;;;;;;8242335;28;20406;-72
2020/12/16 22:53:37;;;;;;;303.80;83.28;;;;;;;;;;8259253;28;20460;-72
2020/12/16 22:58:11;;;;;;;101.93;42.15;;;;;;;;;;8247291;28;20402;-72
2020/12/16 23:02:17;;;;;;;110.43;43.70;;;;;;;;;;8260866;28;20369;-72
2020/12/16 23:06:20;;;;;;;101.47;39.08;;;;;;;;;;8260083;28;20494;-72
2020/12/16 23:10:26;;;;;;;116.32;43.95;;;;;;;;;;8259850;28;20475;-72
2020/12/16 23:14:29;;;;;;;112.38;41.95;;;;;;;;;;8242584;28;20648;-72
2020/12/16 23:18:32;;;;;;;114.63;45.33;;;;;;;;;;8259980;28;20387;-73
2020/12/16 23:22:35;;;;;;;118.55;45.40;;;;;;;;;;8260220;28;20075;-72
2020/12/16 23:26:43;;;;;;;108.28;42.05;;;;;;;;;;8259614;28;20456;-73
2020/12/16 23:30:46;;;;;;;162.60;59.63;;;;;;;;;;8259977;28;20491;-72
2020/12/16 23:34:49;;;;;;;129.68;49.13;;;;;;;;;;8241664;28;20380;-72
2020/12/16 23:38:52;;;;;;;124.05;48.28;;;;;;;;;;8259165;28;20501;-72
2020/12/16 23:42:55;;;;;;;103.72;39.92;;;;;;;;;;8259136;28;20482;-73
2020/12/16 23:46:58;;;;;;;114.13;43.58;;;;;;;;;;8259162;28;20471;-72